sensor_id;sensor_type;location;lat;lon;timestamp;P1;durP1;ratioP1;P2;durP2;ratioP2
54271;SDS011;40184;53.362;5.216;2022-08-18T00:02:05;22.52;;;6.57;;
54271;SDS011;40184;53.362;5.216;2022-08-18T00:04:37;23.90;;;6.88;;
54271;SDS011;40184;53.362;5.216;2022-08-18T00:07:10;26.58;;;7.55;;
54271;SDS011;40184;53.362;5.216;2022-08-18T00:09:38;20.23;;;6.68;;
54271;SDS011;40184;53.362;5.216;2022-08-18T00:12:07;14.80;;;5.60;;
54271;SDS011;40184;53.362;5.216;2022-08-18T00:14:39;16.17;;;6.55;;
54271;SDS011;40184;53.362;5.216;2022-08-18T00:17:04;13.63;;;5.70;;
54271;SDS011;40184;53.362;5.216;2022-08-18T00:19:30;16.10;;;6.18;;
54271;SDS011;40184;53.362;5.216;2022-08-18T00:21:56;16.45;;;5.82;;
54271;SDS011;40184;53.362;5.216;2022-08-18T00:24:22;12.90;;;5.60;;
54271;SDS011;40184;53.362;5.216;2022-08-18T00:26:48;10.45;;;4.50;;
54271;SDS011;40184;53.362;5.216;2022-08-18T00:29:13;12.18;;;5.50;;
54271;SDS011;40184;53.362;5.216;2022-08-18T00:31:39;10.13;;;4.95;;
54271;SDS011;40184;53.362;5.216;2022-08-18T00:34:04;12.90;;;5.72;;
54271;SDS011;40184;53.362;5.216;2022-08-18T00:36:31;12.13;;;5.20;;
54271;SDS011;40184;53.362;5.216;2022-08-18T00:38:59;9.82;;;5.18;;
54271;SDS011;40184;53.362;5.216;2022-08-18T00:41:25;6.70;;;4.50;;
54271;SDS011;40184;53.362;5.216;2022-08-18T00:43:52;13.00;;;5.18;;
54271;SDS011;40184;53.362;5.216;2022-08-18T00:46:32;12.27;;;4.75;;
54271;SDS011;40184;53.362;5.216;2022-08-18T00:48:59;12.23;;;4.63;;
54271;SDS011;40184;53.362;5.216;2022-08-18T00:51:33;21.17;;;5.75;;
54271;SDS011;40184;53.362;5.216;2022-08-18T00:54:20;11.85;;;5.00;;
54271;SDS011;40184;53.362;5.216;2022-08-18T00:56:53;6.38;;;5.03;;
54271;SDS011;40184;53.362;5.216;2022-08-18T00:59:25;13.77;;;5.35;;
54271;SDS011;40184;53.362;5.216;2022-08-18T01:01:59;13.50;;;5.47;;
54271;SDS011;40184;53.362;5.216;2022-08-18T01:09:32;11.45;;;4.78;;
54271;SDS011;40184;53.362;5.216;2022-08-18T01:11:57;9.25;;;4.90;;
54271;SDS011;40184;53.362;5.216;2022-08-18T01:14:23;8.70;;;4.60;;
54271;SDS011;40184;53.362;5.216;2022-08-18T01:16:49;9.40;;;4.80;;
54271;SDS011;40184;53.362;5.216;2022-08-18T01:19:34;10.10;;;4.93;;
54271;SDS011;40184;53.362;5.216;2022-08-18T01:22:27;10.43;;;5.15;;
54271;SDS011;40184;53.362;5.216;2022-08-18T01:25:01;24.50;;;5.30;;
54271;SDS011;40184;53.362;5.216;2022-08-18T01:27:47;8.52;;;4.80;;
54271;SDS011;40184;53.362;5.216;2022-08-18T01:30:14;11.55;;;5.22;;
54271;SDS011;40184;53.362;5.216;2022-08-18T01:32:42;12.70;;;4.93;;
54271;SDS011;40184;53.362;5.216;2022-08-18T01:35:10;7.00;;;4.47;;
54271;SDS011;40184;53.362;5.216;2022-08-18T01:37:38;12.52;;;5.68;;
54271;SDS011;40184;53.362;5.216;2022-08-18T01:40:06;10.90;;;5.05;;
54271;SDS011;40184;53.362;5.216;2022-08-18T01:42:33;9.40;;;5.53;;
54271;SDS011;40184;53.362;5.216;2022-08-18T01:45:00;11.63;;;6.55;;
54271;SDS011;40184;53.362;5.216;2022-08-18T01:47:29;12.15;;;6.40;;
54271;SDS011;40184;53.362;5.216;2022-08-18T01:49:56;10.48;;;5.72;;
54271;SDS011;40184;53.362;5.216;2022-08-18T01:52:22;9.63;;;5.60;;
54271;SDS011;40184;53.362;5.216;2022-08-18T01:54:49;8.85;;;5.22;;
54271;SDS011;40184;53.362;5.216;2022-08-18T01:57:16;10.32;;;5.70;;
54271;SDS011;40184;53.362;5.216;2022-08-18T01:59:43;10.75;;;5.00;;
54271;SDS011;40184;53.362;5.216;2022-08-18T02:02:09;6.72;;;5.45;;
54271;SDS011;40184;53.362;5.216;2022-08-18T02:04:40;9.48;;;4.22;;
54271;SDS011;40184;53.362;5.216;2022-08-18T02:07:08;9.38;;;5.93;;
54271;SDS011;40184;53.362;5.216;2022-08-18T02:09:36;12.48;;;5.28;;
54271;SDS011;40184;53.362;5.216;2022-08-18T02:12:03;9.68;;;4.40;;
54271;SDS011;40184;53.362;5.216;2022-08-18T02:14:31;14.68;;;4.80;;
54271;SDS011;40184;53.362;5.216;2022-08-18T02:16:58;11.60;;;5.15;;
54271;SDS011;40184;53.362;5.216;2022-08-18T02:19:25;13.32;;;4.25;;
54271;SDS011;40184;53.362;5.216;2022-08-18T02:21:51;14.85;;;4.50;;
54271;SDS011;40184;53.362;5.216;2022-08-18T02:24:17;9.85;;;4.40;;
54271;SDS011;40184;53.362;5.216;2022-08-18T02:26:43;12.10;;;4.68;;
54271;SDS011;40184;53.362;5.216;2022-08-18T02:29:09;4.18;;;2.95;;
54271;SDS011;40184;53.362;5.216;2022-08-18T02:31:35;11.05;;;4.10;;
54271;SDS011;40184;53.362;5.216;2022-08-18T02:34:00;8.45;;;3.78;;
54271;SDS011;40184;53.362;5.216;2022-08-18T02:36:26;8.88;;;3.28;;
54271;SDS011;40184;53.362;5.216;2022-08-18T02:38:52;6.10;;;3.25;;
54271;SDS011;40184;53.362;5.216;2022-08-18T02:41:18;11.90;;;4.05;;
54271;SDS011;40184;53.362;5.216;2022-08-18T02:43:46;7.53;;;3.40;;
54271;SDS011;40184;53.362;5.216;2022-08-18T02:46:12;12.73;;;4.30;;
54271;SDS011;40184;53.362;5.216;2022-08-18T02:48:39;13.57;;;4.63;;
54271;SDS011;40184;53.362;5.216;2022-08-18T02:51:09;10.48;;;3.70;;
54271;SDS011;40184;53.362;5.216;2022-08-18T02:53:36;9.57;;;3.67;;
54271;SDS011;40184;53.362;5.216;2022-08-18T02:56:09;12.63;;;4.22;;
54271;SDS011;40184;53.362;5.216;2022-08-18T02:59:05;10.63;;;4.13;;
54271;SDS011;40184;53.362;5.216;2022-08-18T03:01:34;10.60;;;3.92;;
54271;SDS011;40184;53.362;5.216;2022-08-18T03:04:03;5.32;;;3.00;;
54271;SDS011;40184;53.362;5.216;2022-08-18T03:06:31;9.35;;;3.35;;
54271;SDS011;40184;53.362;5.216;2022-08-18T03:08:59;9.27;;;3.42;;
54271;SDS011;40184;53.362;5.216;2022-08-18T03:11:25;7.10;;;3.58;;
54271;SDS011;40184;53.362;5.216;2022-08-18T03:13:53;5.85;;;2.60;;
54271;SDS011;40184;53.362;5.216;2022-08-18T03:16:20;9.35;;;3.97;;
54271;SDS011;40184;53.362;5.216;2022-08-18T03:18:49;14.32;;;4.40;;
54271;SDS011;40184;53.362;5.216;2022-08-18T03:21:18;9.52;;;3.75;;
54271;SDS011;40184;53.362;5.216;2022-08-18T03:23:45;9.63;;;4.50;;
54271;SDS011;40184;53.362;5.216;2022-08-18T03:26:13;10.50;;;4.63;;
54271;SDS011;40184;53.362;5.216;2022-08-18T03:28:41;15.50;;;4.68;;
54271;SDS011;40184;53.362;5.216;2022-08-18T03:31:09;16.25;;;3.92;;
54271;SDS011;40184;53.362;5.216;2022-08-18T03:33:35;9.98;;;4.03;;
54271;SDS011;40184;53.362;5.216;2022-08-18T03:36:03;11.38;;;3.85;;
54271;SDS011;40184;53.362;5.216;2022-08-18T03:38:30;8.02;;;3.65;;
54271;SDS011;40184;53.362;5.216;2022-08-18T03:40:56;11.68;;;4.18;;
54271;SDS011;40184;53.362;5.216;2022-08-18T03:43:21;15.40;;;4.40;;
54271;SDS011;40184;53.362;5.216;2022-08-18T03:45:47;16.17;;;4.43;;
54271;SDS011;40184;53.362;5.216;2022-08-18T03:48:13;11.00;;;4.05;;
54271;SDS011;40184;53.362;5.216;2022-08-18T03:50:38;13.70;;;4.65;;
54271;SDS011;40184;53.362;5.216;2022-08-18T03:53:04;15.05;;;4.85;;
54271;SDS011;40184;53.362;5.216;2022-08-18T03:55:31;18.30;;;4.60;;
54271;SDS011;40184;53.362;5.216;2022-08-18T03:58:00;10.38;;;3.88;;
54271;SDS011;40184;53.362;5.216;2022-08-18T04:00:29;9.32;;;4.05;;
54271;SDS011;40184;53.362;5.216;2022-08-18T04:02:56;13.90;;;4.10;;
54271;SDS011;40184;53.362;5.216;2022-08-18T04:05:25;7.75;;;3.13;;
54271;SDS011;40184;53.362;5.216;2022-08-18T04:07:52;13.13;;;4.30;;
54271;SDS011;40184;53.362;5.216;2022-08-18T04:10:18;8.68;;;4.20;;
54271;SDS011;40184;53.362;5.216;2022-08-18T04:12:44;13.23;;;4.68;;
54271;SDS011;40184;53.362;5.216;2022-08-18T04:15:10;9.02;;;3.45;;
54271;SDS011;40184;53.362;5.216;2022-08-18T04:17:35;6.40;;;2.92;;
54271;SDS011;40184;53.362;5.216;2022-08-18T04:20:02;13.45;;;3.97;;
54271;SDS011;40184;53.362;5.216;2022-08-18T04:22:28;13.73;;;4.03;;
54271;SDS011;40184;53.362;5.216;2022-08-18T04:24:57;15.13;;;3.63;;
54271;SDS011;40184;53.362;5.216;2022-08-18T04:27:25;11.50;;;3.55;;
54271;SDS011;40184;53.362;5.216;2022-08-18T04:29:51;5.28;;;2.90;;
54271;SDS011;40184;53.362;5.216;2022-08-18T04:32:18;9.75;;;3.75;;
54271;SDS011;40184;53.362;5.216;2022-08-18T04:34:44;11.77;;;3.38;;
54271;SDS011;40184;53.362;5.216;2022-08-18T04:37:09;11.30;;;3.45;;
54271;SDS011;40184;53.362;5.216;2022-08-18T04:39:37;17.70;;;4.57;;
54271;SDS011;40184;53.362;5.216;2022-08-18T04:42:03;11.50;;;3.13;;
54271;SDS011;40184;53.362;5.216;2022-08-18T04:44:29;10.35;;;2.88;;
54271;SDS011;40184;53.362;5.216;2022-08-18T04:46:55;12.52;;;3.33;;
54271;SDS011;40184;53.362;5.216;2022-08-18T04:49:22;10.98;;;3.03;;
54271;SDS011;40184;53.362;5.216;2022-08-18T04:51:50;10.63;;;2.47;;
54271;SDS011;40184;53.362;5.216;2022-08-18T04:54:36;9.20;;;2.97;;
54271;SDS011;40184;53.362;5.216;2022-08-18T04:57:10;15.30;;;2.83;;
54271;SDS011;40184;53.362;5.216;2022-08-18T04:59:39;14.88;;;3.00;;
54271;SDS011;40184;53.362;5.216;2022-08-18T05:02:05;9.52;;;2.35;;
54271;SDS011;40184;53.362;5.216;2022-08-18T05:04:33;10.43;;;3.17;;
54271;SDS011;40184;53.362;5.216;2022-08-18T05:07:01;11.10;;;2.47;;
54271;SDS011;40184;53.362;5.216;2022-08-18T05:09:31;7.93;;;2.60;;
54271;SDS011;40184;53.362;5.216;2022-08-18T05:11:57;17.15;;;2.67;;
54271;SDS011;40184;53.362;5.216;2022-08-18T05:14:23;14.80;;;3.45;;
54271;SDS011;40184;53.362;5.216;2022-08-18T05:16:49;17.52;;;3.25;;
54271;SDS011;40184;53.362;5.216;2022-08-18T05:19:17;10.93;;;3.05;;
54271;SDS011;40184;53.362;5.216;2022-08-18T05:21:46;12.23;;;3.53;;
54271;SDS011;40184;53.362;5.216;2022-08-18T05:24:13;8.13;;;2.63;;
54271;SDS011;40184;53.362;5.216;2022-08-18T05:26:39;9.20;;;2.75;;
54271;SDS011;40184;53.362;5.216;2022-08-18T05:29:05;8.10;;;2.13;;
54271;SDS011;40184;53.362;5.216;2022-08-18T05:31:32;9.98;;;2.65;;
54271;SDS011;40184;53.362;5.216;2022-08-18T05:33:58;12.95;;;2.92;;
54271;SDS011;40184;53.362;5.216;2022-08-18T05:44:43;14.45;;;3.70;;
54271;SDS011;40184;53.362;5.216;2022-08-18T05:47:27;13.10;;;3.38;;
54271;SDS011;40184;53.362;5.216;2022-08-18T05:49:55;14.88;;;4.15;;
54271;SDS011;40184;53.362;5.216;2022-08-18T05:52:35;13.35;;;3.25;;
54271;SDS011;40184;53.362;5.216;2022-08-18T05:55:45;11.82;;;3.22;;
54271;SDS011;40184;53.362;5.216;2022-08-18T05:58:21;11.48;;;3.03;;
54271;SDS011;40184;53.362;5.216;2022-08-18T06:00:51;15.48;;;3.10;;
54271;SDS011;40184;53.362;5.216;2022-08-18T06:03:24;13.05;;;3.38;;
54271;SDS011;40184;53.362;5.216;2022-08-18T06:05:58;10.93;;;2.80;;
54271;SDS011;40184;53.362;5.216;2022-08-18T06:08:28;16.67;;;3.08;;
54271;SDS011;40184;53.362;5.216;2022-08-18T06:11:00;13.00;;;3.17;;
54271;SDS011;40184;53.362;5.216;2022-08-18T06:13:26;10.15;;;2.70;;
54271;SDS011;40184;53.362;5.216;2022-08-18T06:37:16;14.40;;;3.08;;
54271;SDS011;40184;53.362;5.216;2022-08-18T06:39:52;11.43;;;2.55;;
54271;SDS011;40184;53.362;5.216;2022-08-18T06:42:36;15.32;;;2.70;;
54271;SDS011;40184;53.362;5.216;2022-08-18T06:45:04;19.52;;;3.53;;
54271;SDS011;40184;53.362;5.216;2022-08-18T06:47:42;11.52;;;3.38;;
54271;SDS011;40184;53.362;5.216;2022-08-18T06:50:27;18.73;;;3.60;;
54271;SDS011;40184;53.362;5.216;2022-08-18T06:52:59;8.03;;;3.03;;
54271;SDS011;40184;53.362;5.216;2022-08-18T06:55:32;9.75;;;2.53;;
54271;SDS011;40184;53.362;5.216;2022-08-18T07:00:42;7.97;;;2.85;;
54271;SDS011;40184;53.362;5.216;2022-08-18T07:04:01;7.57;;;2.50;;
54271;SDS011;40184;53.362;5.216;2022-08-18T07:08:47;9.57;;;3.13;;
54271;SDS011;40184;53.362;5.216;2022-08-18T07:11:25;8.03;;;2.60;;
54271;SDS011;40184;53.362;5.216;2022-08-18T07:13:54;11.50;;;2.45;;
54271;SDS011;40184;53.362;5.216;2022-08-18T07:18:49;11.23;;;2.90;;
54271;SDS011;40184;53.362;5.216;2022-08-18T07:21:26;8.77;;;2.95;;
54271;SDS011;40184;53.362;5.216;2022-08-18T07:23:58;11.00;;;2.80;;
54271;SDS011;40184;53.362;5.216;2022-08-18T07:29:40;12.20;;;2.90;;
54271;SDS011;40184;53.362;5.216;2022-08-18T07:32:26;10.05;;;2.60;;
54271;SDS011;40184;53.362;5.216;2022-08-18T07:34:59;10.40;;;2.63;;
54271;SDS011;40184;53.362;5.216;2022-08-18T07:37:33;12.43;;;2.75;;
54271;SDS011;40184;53.362;5.216;2022-08-18T07:40:18;13.27;;;2.88;;
54271;SDS011;40184;53.362;5.216;2022-08-18T07:43:59;35.80;;;7.05;;
54271;SDS011;40184;53.362;5.216;2022-08-18T07:46:07;13.23;;;3.42;;
54271;SDS011;40184;53.362;5.216;2022-08-18T07:48:37;11.90;;;2.40;;
54271;SDS011;40184;53.362;5.216;2022-08-18T08:04:21;8.85;;;2.13;;
54271;SDS011;40184;53.362;5.216;2022-08-18T08:07:09;10.55;;;2.50;;
54271;SDS011;40184;53.362;5.216;2022-08-18T08:15:42;9.25;;;2.33;;
54271;SDS011;40184;53.362;5.216;2022-08-18T08:18:03;10.00;;;2.60;;
54271;SDS011;40184;53.362;5.216;2022-08-18T08:20:56;10.15;;;3.22;;
54271;SDS011;40184;53.362;5.216;2022-08-18T08:23:40;9.10;;;2.30;;
54271;SDS011;40184;53.362;5.216;2022-08-18T08:36:35;8.63;;;2.50;;
54271;SDS011;40184;53.362;5.216;2022-08-18T08:39:05;6.97;;;1.95;;
54271;SDS011;40184;53.362;5.216;2022-08-18T08:41:53;12.68;;;3.53;;
54271;SDS011;40184;53.362;5.216;2022-08-18T08:47:09;6.65;;;1.73;;
54271;SDS011;40184;53.362;5.216;2022-08-18T08:49:56;7.57;;;2.10;;
54271;SDS011;40184;53.362;5.216;2022-08-18T08:52:28;8.85;;;2.08;;
54271;SDS011;40184;53.362;5.216;2022-08-18T08:55:16;7.78;;;1.90;;
54271;SDS011;40184;53.362;5.216;2022-08-18T08:57:52;6.60;;;1.60;;
54271;SDS011;40184;53.362;5.216;2022-08-18T09:00:41;4.10;;;1.27;;
54271;SDS011;40184;53.362;5.216;2022-08-18T09:05:48;10.05;;;2.63;;
54271;SDS011;40184;53.362;5.216;2022-08-18T09:08:34;6.55;;;1.80;;
54271;SDS011;40184;53.362;5.216;2022-08-18T09:11:26;5.85;;;2.30;;
54271;SDS011;40184;53.362;5.216;2022-08-18T09:13:57;10.25;;;2.47;;
54271;SDS011;40184;53.362;5.216;2022-08-18T09:16:59;3.67;;;1.40;;
54271;SDS011;40184;53.362;5.216;2022-08-18T09:19:48;6.07;;;2.03;;
54271;SDS011;40184;53.362;5.216;2022-08-18T09:22:48;6.78;;;2.15;;
54271;SDS011;40184;53.362;5.216;2022-08-18T09:25:43;7.70;;;2.35;;
54271;SDS011;40184;53.362;5.216;2022-08-18T09:33:33;4.03;;;1.55;;
54271;SDS011;40184;53.362;5.216;2022-08-18T09:39:16;8.55;;;1.90;;
54271;SDS011;40184;53.362;5.216;2022-08-18T09:42:26;8.55;;;1.83;;
54271;SDS011;40184;53.362;5.216;2022-08-18T09:44:59;4.00;;;1.92;;
54271;SDS011;40184;53.362;5.216;2022-08-18T09:55:00;2.05;;;1.00;;
54271;SDS011;40184;53.362;5.216;2022-08-18T09:57:35;4.13;;;1.42;;
54271;SDS011;40184;53.362;5.216;2022-08-18T10:07:48;3.72;;;1.60;;
54271;SDS011;40184;53.362;5.216;2022-08-18T10:29:03;4.03;;;1.70;;
54271;SDS011;40184;53.362;5.216;2022-08-18T10:31:30;2.35;;;1.10;;
54271;SDS011;40184;53.362;5.216;2022-08-18T10:34:38;6.15;;;1.73;;
54271;SDS011;40184;53.362;5.216;2022-08-18T10:37:16;2.03;;;1.30;;
54271;SDS011;40184;53.362;5.216;2022-08-18T10:40:00;11.82;;;1.80;;
54271;SDS011;40184;53.362;5.216;2022-08-18T10:42:44;5.07;;;1.33;;
54271;SDS011;40184;53.362;5.216;2022-08-18T10:45:34;2.08;;;1.38;;
54271;SDS011;40184;53.362;5.216;2022-08-18T10:48:09;3.13;;;1.40;;
54271;SDS011;40184;53.362;5.216;2022-08-18T10:50:42;1.63;;;0.95;;
54271;SDS011;40184;53.362;5.216;2022-08-18T10:56:09;3.58;;;1.38;;
54271;SDS011;40184;53.362;5.216;2022-08-18T11:02:06;3.47;;;1.58;;
54271;SDS011;40184;53.362;5.216;2022-08-18T11:04:36;3.97;;;1.52;;
54271;SDS011;40184;53.362;5.216;2022-08-18T11:07:12;3.22;;;1.77;;
54271;SDS011;40184;53.362;5.216;2022-08-18T11:09:44;3.65;;;1.48;;
54271;SDS011;40184;53.362;5.216;2022-08-18T11:12:13;3.47;;;1.67;;
54271;SDS011;40184;53.362;5.216;2022-08-18T11:19:35;2.92;;;1.13;;
54271;SDS011;40184;53.362;5.216;2022-08-18T11:22:03;4.47;;;1.45;;
54271;SDS011;40184;53.362;5.216;2022-08-18T11:24:30;4.28;;;1.13;;
54271;SDS011;40184;53.362;5.216;2022-08-18T11:27:00;6.53;;;1.40;;
54271;SDS011;40184;53.362;5.216;2022-08-18T11:32:00;2.13;;;1.10;;
54271;SDS011;40184;53.362;5.216;2022-08-18T11:34:33;3.38;;;1.38;;
54271;SDS011;40184;53.362;5.216;2022-08-18T11:40:04;6.07;;;1.73;;
54271;SDS011;40184;53.362;5.216;2022-08-18T11:42:36;4.50;;;1.35;;
54271;SDS011;40184;53.362;5.216;2022-08-18T11:45:12;3.63;;;1.52;;
54271;SDS011;40184;53.362;5.216;2022-08-18T11:53:21;2.55;;;1.23;;
54271;SDS011;40184;53.362;5.216;2022-08-18T11:56:00;3.95;;;0.95;;
54271;SDS011;40184;53.362;5.216;2022-08-18T11:58:36;2.55;;;0.93;;
54271;SDS011;40184;53.362;5.216;2022-08-18T12:01:04;3.92;;;1.25;;
54271;SDS011;40184;53.362;5.216;2022-08-18T12:06:14;2.75;;;1.30;;
54271;SDS011;40184;53.362;5.216;2022-08-18T12:08:50;1.80;;;0.98;;
54271;SDS011;40184;53.362;5.216;2022-08-18T12:11:18;5.20;;;1.40;;
54271;SDS011;40184;53.362;5.216;2022-08-18T12:13:47;3.63;;;1.50;;
54271;SDS011;40184;53.362;5.216;2022-08-18T12:19:18;6.20;;;1.30;;
54271;SDS011;40184;53.362;5.216;2022-08-18T12:21:49;2.10;;;0.93;;
54271;SDS011;40184;53.362;5.216;2022-08-18T12:24:30;6.40;;;1.67;;
54271;SDS011;40184;53.362;5.216;2022-08-18T12:26:57;8.30;;;1.35;;
54271;SDS011;40184;53.362;5.216;2022-08-18T12:29:24;4.07;;;1.45;;
54271;SDS011;40184;53.362;5.216;2022-08-18T12:31:51;5.65;;;1.10;;
54271;SDS011;40184;53.362;5.216;2022-08-18T12:34:20;3.35;;;1.25;;
54271;SDS011;40184;53.362;5.216;2022-08-18T12:36:51;3.05;;;1.33;;
54271;SDS011;40184;53.362;5.216;2022-08-18T12:39:23;1.85;;;0.93;;
54271;SDS011;40184;53.362;5.216;2022-08-18T12:41:49;8.48;;;2.58;;
54271;SDS011;40184;53.362;5.216;2022-08-18T12:44:14;3.50;;;1.25;;
54271;SDS011;40184;53.362;5.216;2022-08-18T12:46:40;3.38;;;1.45;;
54271;SDS011;40184;53.362;5.216;2022-08-18T12:49:09;6.55;;;2.10;;
54271;SDS011;40184;53.362;5.216;2022-08-18T12:51:41;4.97;;;1.48;;
54271;SDS011;40184;53.362;5.216;2022-08-18T12:54:07;6.57;;;1.30;;
54271;SDS011;40184;53.362;5.216;2022-08-18T12:56:32;6.53;;;1.77;;
54271;SDS011;40184;53.362;5.216;2022-08-18T12:58:59;3.47;;;1.73;;
54271;SDS011;40184;53.362;5.216;2022-08-18T13:01:26;2.70;;;1.13;;
54271;SDS011;40184;53.362;5.216;2022-08-18T13:03:53;1.63;;;0.95;;
54271;SDS011;40184;53.362;5.216;2022-08-18T13:06:22;2.65;;;1.10;;
54271;SDS011;40184;53.362;5.216;2022-08-18T13:08:48;5.95;;;1.73;;
54271;SDS011;40184;53.362;5.216;2022-08-18T13:11:15;4.47;;;1.65;;
54271;SDS011;40184;53.362;5.216;2022-08-18T13:13:41;5.18;;;1.40;;
54271;SDS011;40184;53.362;5.216;2022-08-18T13:16:08;4.05;;;1.80;;
54271;SDS011;40184;53.362;5.216;2022-08-18T13:18:35;3.70;;;1.23;;
54271;SDS011;40184;53.362;5.216;2022-08-18T13:21:02;5.28;;;1.25;;
54271;SDS011;40184;53.362;5.216;2022-08-18T13:23:28;3.55;;;1.25;;
54271;SDS011;40184;53.362;5.216;2022-08-18T13:25:55;4.88;;;1.55;;
54271;SDS011;40184;53.362;5.216;2022-08-18T13:28:23;3.70;;;1.60;;
54271;SDS011;40184;53.362;5.216;2022-08-18T13:30:49;3.47;;;1.08;;
54271;SDS011;40184;53.362;5.216;2022-08-18T13:33:15;5.68;;;1.40;;
54271;SDS011;40184;53.362;5.216;2022-08-18T13:35:42;3.80;;;1.83;;
54271;SDS011;40184;53.362;5.216;2022-08-18T13:38:09;14.20;;;2.30;;
54271;SDS011;40184;53.362;5.216;2022-08-18T13:40:36;5.28;;;1.45;;
54271;SDS011;40184;53.362;5.216;2022-08-18T13:43:02;4.05;;;1.55;;
54271;SDS011;40184;53.362;5.216;2022-08-18T13:45:28;1.67;;;1.00;;
54271;SDS011;40184;53.362;5.216;2022-08-18T13:47:54;5.60;;;2.00;;
54271;SDS011;40184;53.362;5.216;2022-08-18T13:50:20;5.18;;;1.58;;
54271;SDS011;40184;53.362;5.216;2022-08-18T13:52:47;5.53;;;1.63;;
54271;SDS011;40184;53.362;5.216;2022-08-18T13:55:14;5.95;;;1.17;;
54271;SDS011;40184;53.362;5.216;2022-08-18T13:57:42;5.07;;;1.52;;
54271;SDS011;40184;53.362;5.216;2022-08-18T14:00:17;2.15;;;0.93;;
54271;SDS011;40184;53.362;5.216;2022-08-18T14:02:45;4.80;;;1.38;;
54271;SDS011;40184;53.362;5.216;2022-08-18T14:05:12;3.38;;;1.23;;
54271;SDS011;40184;53.362;5.216;2022-08-18T14:07:40;7.20;;;1.23;;
54271;SDS011;40184;53.362;5.216;2022-08-18T14:10:07;4.18;;;1.10;;
54271;SDS011;40184;53.362;5.216;2022-08-18T14:12:34;4.45;;;1.58;;
54271;SDS011;40184;53.362;5.216;2022-08-18T14:15:01;3.22;;;1.05;;
54271;SDS011;40184;53.362;5.216;2022-08-18T14:17:31;3.03;;;1.00;;
54271;SDS011;40184;53.362;5.216;2022-08-18T14:19:57;7.32;;;1.42;;
54271;SDS011;40184;53.362;5.216;2022-08-18T14:22:41;2.55;;;1.10;;
54271;SDS011;40184;53.362;5.216;2022-08-18T14:25:26;2.90;;;1.27;;
54271;SDS011;40184;53.362;5.216;2022-08-18T14:28:11;3.15;;;1.20;;
54271;SDS011;40184;53.362;5.216;2022-08-18T14:30:37;3.03;;;1.05;;
54271;SDS011;40184;53.362;5.216;2022-08-18T14:33:06;2.35;;;1.17;;
54271;SDS011;40184;53.362;5.216;2022-08-18T14:35:32;2.10;;;0.98;;
54271;SDS011;40184;53.362;5.216;2022-08-18T14:37:59;1.63;;;1.30;;
54271;SDS011;40184;53.362;5.216;2022-08-18T14:40:26;3.42;;;1.15;;
54271;SDS011;40184;53.362;5.216;2022-08-18T14:42:52;4.65;;;1.15;;
54271;SDS011;40184;53.362;5.216;2022-08-18T14:45:19;2.75;;;1.00;;
54271;SDS011;40184;53.362;5.216;2022-08-18T14:47:45;3.05;;;1.30;;
54271;SDS011;40184;53.362;5.216;2022-08-18T14:50:10;3.38;;;1.15;;
54271;SDS011;40184;53.362;5.216;2022-08-18T14:52:37;1.73;;;0.82;;
54271;SDS011;40184;53.362;5.216;2022-08-18T14:55:05;2.38;;;1.20;;
54271;SDS011;40184;53.362;5.216;2022-08-18T14:57:31;2.70;;;1.08;;
54271;SDS011;40184;53.362;5.216;2022-08-18T14:59:57;3.33;;;1.02;;
54271;SDS011;40184;53.362;5.216;2022-08-18T15:02:22;5.22;;;1.05;;
54271;SDS011;40184;53.362;5.216;2022-08-18T15:04:48;4.85;;;1.25;;
54271;SDS011;40184;53.362;5.216;2022-08-18T15:07:14;4.63;;;1.63;;
54271;SDS011;40184;53.362;5.216;2022-08-18T15:09:40;3.13;;;1.50;;
54271;SDS011;40184;53.362;5.216;2022-08-18T15:12:06;3.75;;;1.20;;
54271;SDS011;40184;53.362;5.216;2022-08-18T15:14:33;3.53;;;1.25;;
54271;SDS011;40184;53.362;5.216;2022-08-18T15:17:00;1.25;;;1.00;;
54271;SDS011;40184;53.362;5.216;2022-08-18T15:19:27;2.55;;;1.10;;
54271;SDS011;40184;53.362;5.216;2022-08-18T15:21:53;4.05;;;1.20;;
54271;SDS011;40184;53.362;5.216;2022-08-18T15:24:38;4.07;;;1.20;;
54271;SDS011;40184;53.362;5.216;2022-08-18T15:27:28;3.92;;;1.52;;
54271;SDS011;40184;53.362;5.216;2022-08-18T15:30:00;3.15;;;1.23;;
54271;SDS011;40184;53.362;5.216;2022-08-18T15:32:29;0.80;;;0.52;;
54271;SDS011;40184;53.362;5.216;2022-08-18T15:34:54;1.63;;;1.05;;
54271;SDS011;40184;53.362;5.216;2022-08-18T15:37:20;4.60;;;1.58;;
54271;SDS011;40184;53.362;5.216;2022-08-18T15:39:49;3.28;;;1.42;;
54271;SDS011;40184;53.362;5.216;2022-08-18T15:42:24;3.92;;;1.20;;
54271;SDS011;40184;53.362;5.216;2022-08-18T15:44:49;3.00;;;1.00;;
54271;SDS011;40184;53.362;5.216;2022-08-18T15:47:17;3.50;;;1.17;;
54271;SDS011;40184;53.362;5.216;2022-08-18T15:49:42;5.97;;;1.65;;
54271;SDS011;40184;53.362;5.216;2022-08-18T15:52:11;5.10;;;1.20;;
54271;SDS011;40184;53.362;5.216;2022-08-18T15:54:37;3.53;;;1.25;;
54271;SDS011;40184;53.362;5.216;2022-08-18T15:57:02;4.60;;;1.25;;
54271;SDS011;40184;53.362;5.216;2022-08-18T15:59:28;5.05;;;1.58;;
54271;SDS011;40184;53.362;5.216;2022-08-18T16:01:54;5.00;;;1.88;;
54271;SDS011;40184;53.362;5.216;2022-08-18T16:04:19;4.20;;;1.55;;
54271;SDS011;40184;53.362;5.216;2022-08-18T16:06:45;4.07;;;1.15;;
54271;SDS011;40184;53.362;5.216;2022-08-18T16:09:14;4.65;;;1.27;;
54271;SDS011;40184;53.362;5.216;2022-08-18T16:11:40;1.60;;;0.77;;
54271;SDS011;40184;53.362;5.216;2022-08-18T16:14:06;8.02;;;1.30;;
54271;SDS011;40184;53.362;5.216;2022-08-18T16:16:33;3.20;;;1.42;;
54271;SDS011;40184;53.362;5.216;2022-08-18T16:18:58;10.65;;;1.67;;
54271;SDS011;40184;53.362;5.216;2022-08-18T16:21:25;6.53;;;1.17;;
54271;SDS011;40184;53.362;5.216;2022-08-18T16:23:51;3.20;;;1.10;;
54271;SDS011;40184;53.362;5.216;2022-08-18T16:26:18;4.32;;;1.48;;
54271;SDS011;40184;53.362;5.216;2022-08-18T16:28:47;4.63;;;1.58;;
54271;SDS011;40184;53.362;5.216;2022-08-18T16:31:16;5.85;;;1.83;;
54271;SDS011;40184;53.362;5.216;2022-08-18T16:33:44;6.40;;;1.20;;
54271;SDS011;40184;53.362;5.216;2022-08-18T16:36:10;3.50;;;1.05;;
54271;SDS011;40184;53.362;5.216;2022-08-18T16:38:38;3.08;;;1.10;;
54271;SDS011;40184;53.362;5.216;2022-08-18T16:41:08;4.53;;;1.23;;
54271;SDS011;40184;53.362;5.216;2022-08-18T16:43:37;6.28;;;1.40;;
54271;SDS011;40184;53.362;5.216;2022-08-18T16:46:08;3.88;;;1.52;;
54271;SDS011;40184;53.362;5.216;2022-08-18T16:48:40;7.15;;;1.67;;
54271;SDS011;40184;53.362;5.216;2022-08-18T16:51:10;4.47;;;1.20;;
54271;SDS011;40184;53.362;5.216;2022-08-18T16:53:37;6.13;;;1.75;;
54271;SDS011;40184;53.362;5.216;2022-08-18T16:56:03;4.65;;;1.80;;
54271;SDS011;40184;53.362;5.216;2022-08-18T16:58:34;2.33;;;1.80;;
54271;SDS011;40184;53.362;5.216;2022-08-18T17:01:18;3.63;;;1.40;;
54271;SDS011;40184;53.362;5.216;2022-08-18T17:04:02;5.63;;;1.50;;
54271;SDS011;40184;53.362;5.216;2022-08-18T17:06:32;6.78;;;1.38;;
54271;SDS011;40184;53.362;5.216;2022-08-18T17:08:59;3.03;;;1.42;;
54271;SDS011;40184;53.362;5.216;2022-08-18T17:11:26;7.55;;;1.83;;
54271;SDS011;40184;53.362;5.216;2022-08-18T17:13:52;4.32;;;1.20;;
54271;SDS011;40184;53.362;5.216;2022-08-18T17:16:21;3.63;;;1.20;;
54271;SDS011;40184;53.362;5.216;2022-08-18T17:18:51;108.07;;;14.18;;
54271;SDS011;40184;53.362;5.216;2022-08-18T17:21:19;4.72;;;1.50;;
54271;SDS011;40184;53.362;5.216;2022-08-18T17:23:47;8.88;;;1.48;;
54271;SDS011;40184;53.362;5.216;2022-08-18T17:26:35;3.88;;;1.05;;
54271;SDS011;40184;53.362;5.216;2022-08-18T17:32:00;4.85;;;1.65;;
54271;SDS011;40184;53.362;5.216;2022-08-18T17:34:32;5.88;;;1.50;;
54271;SDS011;40184;53.362;5.216;2022-08-18T17:37:06;8.23;;;2.33;;
54271;SDS011;40184;53.362;5.216;2022-08-18T17:39:43;4.68;;;1.33;;